Airfield :







YOU CAN JOIN US ON...

 
LOGIN :

Register | Disclaimer

   EN    FR    IT 

 









Legend :    VFR   Marginal VFR   IFR   Intensive IFR   Very Intensive IFR
Visi :
Ceiling :
>= 8 km
>= 3000ft
5 to 8 km
1000 to 3000 ft
1500m to 5 km
500 to 1000 ft
800 to 1500m
200 to 500 ft
< 800m
< 200 ft
Symbols :   Thunderstorms  Fog  Heavy snow  Heavy precipitations  Wind > 20 kt






- Airport Elevation : 328 ft


KGFL - Floyd Bennett Memorial

CURRENT METAR :
  • 040253Z AUTO 04005KT 10SM BKN070 OVC090 09/04 A2995 RMK AO2 SLP146 T00890044 51016

EXPIRED METARs :
  • 040153Z AUTO 03006KT 10SM OVC070 09/05 A2994 RMK AO2 SLP144 T00890050
  • 040053Z AUTO 04005KT 10SM SCT038 OVC075 09/05 A2993 RMK AO2 SLP139 T00890050

TAF KGFL
Valid from the 04 at 00:00 until the 05 at 00:00 UTC


032320Z 0400/0424 02008KT P6SM VCSH SCT025 OVC060
TEMPO 0400/0404 6SM -SHRA BR BKN025 OVC040
FM040400 01006KT P6SM VCSH SCT025 OVC040
FM041400 06007KT P6SM BKN040



MET'MAP, your aeronautical weather chart ! - Copyright ORBIFLY December 2007 - Disclaimer

ORBIFLY MET'MAP TEAM :

Programming & Development : Alexandra Zaïnal
Concept & original design : Baudouin d'Aumeries
Assistance for programming : Marc-Olivier Méhu
Technical & hardware support : Manuel Goepfert

Contact : metmap@orbifly.com




SOURCES & CREDITS :

   NOAA